sensor_id;sensor_type;location;lat;lon;timestamp;P1;durP1;ratioP1;P2;durP2;ratioP2
74707;SDS011;63360;50.104;8.074;2024-02-23T00:01:06;1.20;;;0.30;;
74707;SDS011;63360;50.104;8.074;2024-02-23T00:03:33;0.50;;;0.20;;
74707;SDS011;63360;50.104;8.074;2024-02-23T00:06:02;2.17;;;0.30;;
74707;SDS011;63360;50.104;8.074;2024-02-23T00:08:29;3.17;;;0.30;;
74707;SDS011;63360;50.104;8.074;2024-02-23T00:10:55;0.85;;;0.30;;
74707;SDS011;63360;50.104;8.074;2024-02-23T00:13:22;3.22;;;0.30;;
74707;SDS011;63360;50.104;8.074;2024-02-23T00:15:48;0.77;;;0.20;;
74707;SDS011;63360;50.104;8.074;2024-02-23T00:18:14;1.80;;;0.20;;
74707;SDS011;63360;50.104;8.074;2024-02-23T00:20:43;1.10;;;0.20;;
74707;SDS011;63360;50.104;8.074;2024-02-23T00:23:10;1.20;;;0.20;;
74707;SDS011;63360;50.104;8.074;2024-02-23T00:25:36;1.38;;;0.20;;
74707;SDS011;63360;50.104;8.074;2024-02-23T00:28:03;0.75;;;0.20;;
74707;SDS011;63360;50.104;8.074;2024-02-23T00:30:29;1.87;;;0.13;;
74707;SDS011;63360;50.104;8.074;2024-02-23T00:32:56;0.73;;;0.10;;
74707;SDS011;63360;50.104;8.074;2024-02-23T00:35:22;3.50;;;0.10;;
74707;SDS011;63360;50.104;8.074;2024-02-23T00:37:49;0.20;;;0.10;;
74707;SDS011;63360;50.104;8.074;2024-02-23T00:40:15;0.82;;;0.10;;
74707;SDS011;63360;50.104;8.074;2024-02-23T00:42:42;0.87;;;0.10;;
74707;SDS011;63360;50.104;8.074;2024-02-23T00:45:08;1.20;;;0.10;;
74707;SDS011;63360;50.104;8.074;2024-02-23T00:47:34;0.15;;;0.05;;
74707;SDS011;63360;50.104;8.074;2024-02-23T00:50:01;0.32;;;0.00;;
74707;SDS011;63360;50.104;8.074;2024-02-23T00:52:28;1.27;;;0.05;;
74707;SDS011;63360;50.104;8.074;2024-02-23T00:54:54;1.00;;;0.10;;
74707;SDS011;63360;50.104;8.074;2024-02-23T00:57:21;1.20;;;0.20;;
74707;SDS011;63360;50.104;8.074;2024-02-23T00:59:53;0.95;;;0.10;;
74707;SDS011;63360;50.104;8.074;2024-02-23T01:02:19;0.30;;;0.10;;
74707;SDS011;63360;50.104;8.074;2024-02-23T01:04:46;0.40;;;0.10;;
74707;SDS011;63360;50.104;8.074;2024-02-23T01:07:12;2.83;;;0.20;;
74707;SDS011;63360;50.104;8.074;2024-02-23T01:09:39;0.17;;;0.03;;
74707;SDS011;63360;50.104;8.074;2024-02-23T01:12:05;2.15;;;0.13;;
74707;SDS011;63360;50.104;8.074;2024-02-23T01:14:32;2.50;;;0.20;;
74707;SDS011;63360;50.104;8.074;2024-02-23T01:16:58;0.70;;;0.10;;
74707;SDS011;63360;50.104;8.074;2024-02-23T01:19:25;1.60;;;0.13;;
74707;SDS011;63360;50.104;8.074;2024-02-23T01:21:51;1.95;;;0.20;;
74707;SDS011;63360;50.104;8.074;2024-02-23T01:24:26;0.68;;;0.10;;
74707;SDS011;63360;50.104;8.074;2024-02-23T01:26:55;1.77;;;0.20;;
74707;SDS011;63360;50.104;8.074;2024-02-23T01:29:22;0.38;;;0.10;;
74707;SDS011;63360;50.104;8.074;2024-02-23T01:31:49;0.63;;;0.10;;
74707;SDS011;63360;50.104;8.074;2024-02-23T01:34:15;1.10;;;0.45;;
74707;SDS011;63360;50.104;8.074;2024-02-23T01:36:42;1.80;;;0.10;;
74707;SDS011;63360;50.104;8.074;2024-02-23T01:39:08;1.88;;;0.10;;
74707;SDS011;63360;50.104;8.074;2024-02-23T01:41:35;0.85;;;0.10;;
74707;SDS011;63360;50.104;8.074;2024-02-23T01:44:02;2.00;;;0.20;;
74707;SDS011;63360;50.104;8.074;2024-02-23T01:46:28;1.63;;;0.10;;
74707;SDS011;63360;50.104;8.074;2024-02-23T01:48:55;0.73;;;0.17;;
74707;SDS011;63360;50.104;8.074;2024-02-23T01:51:23;4.43;;;0.20;;
74707;SDS011;63360;50.104;8.074;2024-02-23T01:53:50;0.70;;;0.20;;
74707;SDS011;63360;50.104;8.074;2024-02-23T01:56:17;2.83;;;0.17;;
74707;SDS011;63360;50.104;8.074;2024-02-23T01:58:46;0.98;;;0.20;;
74707;SDS011;63360;50.104;8.074;2024-02-23T02:01:13;1.38;;;0.20;;
74707;SDS011;63360;50.104;8.074;2024-02-23T02:03:39;1.45;;;0.10;;
74707;SDS011;63360;50.104;8.074;2024-02-23T02:06:06;3.22;;;0.20;;
74707;SDS011;63360;50.104;8.074;2024-02-23T02:08:33;3.03;;;0.20;;
74707;SDS011;63360;50.104;8.074;2024-02-23T02:11:00;1.75;;;0.20;;
74707;SDS011;63360;50.104;8.074;2024-02-23T02:13:28;0.30;;;0.10;;
74707;SDS011;63360;50.104;8.074;2024-02-23T02:15:54;1.63;;;0.10;;
74707;SDS011;63360;50.104;8.074;2024-02-23T02:18:21;1.65;;;0.10;;
74707;SDS011;63360;50.104;8.074;2024-02-23T02:20:51;2.40;;;0.20;;
74707;SDS011;63360;50.104;8.074;2024-02-23T02:23:20;2.65;;;0.10;;
74707;SDS011;63360;50.104;8.074;2024-02-23T02:25:53;2.08;;;0.13;;
74707;SDS011;63360;50.104;8.074;2024-02-23T02:28:23;4.80;;;0.20;;
74707;SDS011;63360;50.104;8.074;2024-02-23T02:30:51;1.48;;;0.10;;
74707;SDS011;63360;50.104;8.074;2024-02-23T02:33:20;1.90;;;0.30;;
74707;SDS011;63360;50.104;8.074;2024-02-23T02:35:48;1.88;;;0.10;;
74707;SDS011;63360;50.104;8.074;2024-02-23T02:38:15;1.23;;;0.30;;
74707;SDS011;63360;50.104;8.074;2024-02-23T02:40:42;2.05;;;0.10;;
74707;SDS011;63360;50.104;8.074;2024-02-23T02:43:08;1.40;;;0.20;;
74707;SDS011;63360;50.104;8.074;2024-02-23T02:45:34;1.63;;;0.20;;
74707;SDS011;63360;50.104;8.074;2024-02-23T02:48:01;2.45;;;0.10;;
74707;SDS011;63360;50.104;8.074;2024-02-23T02:50:31;3.45;;;0.20;;
74707;SDS011;63360;50.104;8.074;2024-02-23T02:52:57;2.45;;;0.20;;
74707;SDS011;63360;50.104;8.074;2024-02-23T02:55:24;2.45;;;0.20;;
74707;SDS011;63360;50.104;8.074;2024-02-23T02:57:50;2.10;;;0.20;;
74707;SDS011;63360;50.104;8.074;2024-02-23T03:00:17;1.13;;;0.20;;
74707;SDS011;63360;50.104;8.074;2024-02-23T03:02:43;3.25;;;0.20;;
74707;SDS011;63360;50.104;8.074;2024-02-23T03:05:09;1.92;;;0.20;;
74707;SDS011;63360;50.104;8.074;2024-02-23T03:07:36;2.38;;;0.20;;
74707;SDS011;63360;50.104;8.074;2024-02-23T03:10:03;1.63;;;0.20;;
74707;SDS011;63360;50.104;8.074;2024-02-23T03:12:29;2.60;;;0.30;;
74707;SDS011;63360;50.104;8.074;2024-02-23T03:14:56;2.97;;;0.20;;
74707;SDS011;63360;50.104;8.074;2024-02-23T03:17:22;3.75;;;0.25;;
74707;SDS011;63360;50.104;8.074;2024-02-23T03:19:49;4.63;;;0.38;;
74707;SDS011;63360;50.104;8.074;2024-02-23T03:22:16;4.47;;;0.30;;
74707;SDS011;63360;50.104;8.074;2024-02-23T03:24:43;1.55;;;0.10;;
74707;SDS011;63360;50.104;8.074;2024-02-23T03:27:09;2.60;;;0.40;;
74707;SDS011;63360;50.104;8.074;2024-02-23T03:29:37;4.90;;;0.35;;
74707;SDS011;63360;50.104;8.074;2024-02-23T03:32:04;2.35;;;0.20;;
74707;SDS011;63360;50.104;8.074;2024-02-23T03:34:31;1.80;;;0.27;;
74707;SDS011;63360;50.104;8.074;2024-02-23T03:36:58;3.65;;;0.50;;
74707;SDS011;63360;50.104;8.074;2024-02-23T03:39:24;2.03;;;0.20;;
74707;SDS011;63360;50.104;8.074;2024-02-23T03:41:51;2.08;;;0.20;;
74707;SDS011;63360;50.104;8.074;2024-02-23T03:44:17;3.30;;;0.20;;
74707;SDS011;63360;50.104;8.074;2024-02-23T03:46:44;1.00;;;0.20;;
74707;SDS011;63360;50.104;8.074;2024-02-23T03:49:10;2.00;;;0.15;;
74707;SDS011;63360;50.104;8.074;2024-02-23T03:51:38;1.40;;;0.20;;
74707;SDS011;63360;50.104;8.074;2024-02-23T03:54:06;3.55;;;0.38;;
74707;SDS011;63360;50.104;8.074;2024-02-23T03:56:39;4.55;;;0.30;;
74707;SDS011;63360;50.104;8.074;2024-02-23T03:59:07;2.87;;;0.20;;
74707;SDS011;63360;50.104;8.074;2024-02-23T04:01:36;3.17;;;0.22;;
74707;SDS011;63360;50.104;8.074;2024-02-23T04:04:06;2.10;;;0.30;;
74707;SDS011;63360;50.104;8.074;2024-02-23T04:06:35;1.92;;;0.20;;
74707;SDS011;63360;50.104;8.074;2024-02-23T04:09:02;1.77;;;0.20;;
74707;SDS011;63360;50.104;8.074;2024-02-23T04:11:31;2.97;;;0.17;;
74707;SDS011;63360;50.104;8.074;2024-02-23T04:13:58;1.75;;;0.20;;
74707;SDS011;63360;50.104;8.074;2024-02-23T04:16:24;3.15;;;0.20;;
74707;SDS011;63360;50.104;8.074;2024-02-23T04:18:51;2.85;;;0.30;;
74707;SDS011;63360;50.104;8.074;2024-02-23T04:21:18;4.95;;;0.38;;
74707;SDS011;63360;50.104;8.074;2024-02-23T04:23:44;2.73;;;0.20;;
74707;SDS011;63360;50.104;8.074;2024-02-23T04:26:11;1.65;;;0.17;;
74707;SDS011;63360;50.104;8.074;2024-02-23T04:28:38;2.53;;;0.40;;
74707;SDS011;63360;50.104;8.074;2024-02-23T04:31:05;3.10;;;0.40;;
74707;SDS011;63360;50.104;8.074;2024-02-23T04:33:31;1.05;;;0.20;;
74707;SDS011;63360;50.104;8.074;2024-02-23T04:35:59;3.57;;;0.20;;
74707;SDS011;63360;50.104;8.074;2024-02-23T04:38:26;1.52;;;0.20;;
74707;SDS011;63360;50.104;8.074;2024-02-23T04:40:52;2.13;;;0.25;;
74707;SDS011;63360;50.104;8.074;2024-02-23T04:43:19;4.32;;;1.40;;
74707;SDS011;63360;50.104;8.074;2024-02-23T04:45:45;3.80;;;0.30;;
74707;SDS011;63360;50.104;8.074;2024-02-23T04:48:12;1.60;;;0.10;;
74707;SDS011;63360;50.104;8.074;2024-02-23T04:50:38;2.25;;;0.30;;
74707;SDS011;63360;50.104;8.074;2024-02-23T04:53:04;4.20;;;0.40;;
74707;SDS011;63360;50.104;8.074;2024-02-23T04:55:31;1.65;;;0.20;;
74707;SDS011;63360;50.104;8.074;2024-02-23T04:57:57;2.13;;;0.30;;
74707;SDS011;63360;50.104;8.074;2024-02-23T05:00:24;1.23;;;0.20;;
74707;SDS011;63360;50.104;8.074;2024-02-23T05:02:54;3.47;;;0.35;;
74707;SDS011;63360;50.104;8.074;2024-02-23T05:05:21;3.95;;;0.30;;
74707;SDS011;63360;50.104;8.074;2024-02-23T05:07:48;0.93;;;0.20;;
74707;SDS011;63360;50.104;8.074;2024-02-23T05:10:14;2.78;;;0.20;;
74707;SDS011;63360;50.104;8.074;2024-02-23T05:12:42;1.33;;;0.30;;
74707;SDS011;63360;50.104;8.074;2024-02-23T05:15:09;2.15;;;0.28;;
74707;SDS011;63360;50.104;8.074;2024-02-23T05:17:35;2.28;;;0.28;;
74707;SDS011;63360;50.104;8.074;2024-02-23T05:20:02;3.22;;;0.30;;
74707;SDS011;63360;50.104;8.074;2024-02-23T05:22:34;3.25;;;0.28;;
74707;SDS011;63360;50.104;8.074;2024-02-23T05:25:00;5.97;;;0.40;;
74707;SDS011;63360;50.104;8.074;2024-02-23T05:27:26;1.35;;;0.20;;
74707;SDS011;63360;50.104;8.074;2024-02-23T05:29:53;2.20;;;0.20;;
74707;SDS011;63360;50.104;8.074;2024-02-23T05:32:19;1.60;;;0.10;;
74707;SDS011;63360;50.104;8.074;2024-02-23T05:34:46;3.08;;;0.60;;
74707;SDS011;63360;50.104;8.074;2024-02-23T05:37:12;2.33;;;0.43;;
74707;SDS011;63360;50.104;8.074;2024-02-23T05:39:39;1.58;;;0.20;;
74707;SDS011;63360;50.104;8.074;2024-02-23T05:42:05;1.92;;;0.20;;
74707;SDS011;63360;50.104;8.074;2024-02-23T05:44:32;2.05;;;0.20;;
74707;SDS011;63360;50.104;8.074;2024-02-23T05:46:58;2.55;;;0.40;;
74707;SDS011;63360;50.104;8.074;2024-02-23T05:49:25;1.77;;;0.20;;
74707;SDS011;63360;50.104;8.074;2024-02-23T05:51:51;1.73;;;0.25;;
74707;SDS011;63360;50.104;8.074;2024-02-23T05:54:18;1.30;;;0.20;;
74707;SDS011;63360;50.104;8.074;2024-02-23T05:56:44;3.00;;;0.25;;
74707;SDS011;63360;50.104;8.074;2024-02-23T05:59:11;3.08;;;0.20;;
74707;SDS011;63360;50.104;8.074;2024-02-23T06:01:38;2.73;;;0.37;;
74707;SDS011;63360;50.104;8.074;2024-02-23T06:04:04;2.20;;;0.70;;
74707;SDS011;63360;50.104;8.074;2024-02-23T06:06:31;3.15;;;0.30;;
74707;SDS011;63360;50.104;8.074;2024-02-23T06:08:58;2.28;;;0.25;;
74707;SDS011;63360;50.104;8.074;2024-02-23T06:11:24;1.05;;;0.20;;
74707;SDS011;63360;50.104;8.074;2024-02-23T06:13:51;2.60;;;0.33;;
74707;SDS011;63360;50.104;8.074;2024-02-23T06:16:17;2.60;;;0.35;;
74707;SDS011;63360;50.104;8.074;2024-02-23T06:18:43;3.63;;;0.40;;
74707;SDS011;63360;50.104;8.074;2024-02-23T06:21:13;2.83;;;0.30;;
74707;SDS011;63360;50.104;8.074;2024-02-23T06:23:41;0.60;;;0.20;;
74707;SDS011;63360;50.104;8.074;2024-02-23T06:26:08;2.20;;;0.30;;
74707;SDS011;63360;50.104;8.074;2024-02-23T06:28:34;4.72;;;0.70;;
74707;SDS011;63360;50.104;8.074;2024-02-23T06:31:03;1.98;;;0.50;;
74707;SDS011;63360;50.104;8.074;2024-02-23T06:33:33;2.88;;;0.40;;
74707;SDS011;63360;50.104;8.074;2024-02-23T06:36:00;2.47;;;0.60;;
74707;SDS011;63360;50.104;8.074;2024-02-23T06:38:27;6.10;;;3.00;;
74707;SDS011;63360;50.104;8.074;2024-02-23T06:40:53;7.25;;;3.15;;
74707;SDS011;63360;50.104;8.074;2024-02-23T06:43:21;8.30;;;3.28;;
74707;SDS011;63360;50.104;8.074;2024-02-23T06:45:49;6.13;;;1.40;;
74707;SDS011;63360;50.104;8.074;2024-02-23T06:48:15;4.85;;;0.80;;
74707;SDS011;63360;50.104;8.074;2024-02-23T06:50:42;5.03;;;1.00;;
74707;SDS011;63360;50.104;8.074;2024-02-23T06:53:08;3.60;;;1.00;;
74707;SDS011;63360;50.104;8.074;2024-02-23T06:55:35;2.70;;;0.50;;
74707;SDS011;63360;50.104;8.074;2024-02-23T06:58:02;6.97;;;3.05;;
74707;SDS011;63360;50.104;8.074;2024-02-23T07:00:30;5.72;;;2.90;;
74707;SDS011;63360;50.104;8.074;2024-02-23T07:02:57;3.63;;;1.17;;
74707;SDS011;63360;50.104;8.074;2024-02-23T07:05:25;8.52;;;3.40;;
74707;SDS011;63360;50.104;8.074;2024-02-23T07:07:51;14.95;;;6.45;;
74707;SDS011;63360;50.104;8.074;2024-02-23T07:10:18;12.25;;;5.55;;
74707;SDS011;63360;50.104;8.074;2024-02-23T07:12:44;9.88;;;4.40;;
74707;SDS011;63360;50.104;8.074;2024-02-23T07:15:11;7.90;;;2.50;;
74707;SDS011;63360;50.104;8.074;2024-02-23T07:17:37;5.97;;;2.33;;
74707;SDS011;63360;50.104;8.074;2024-02-23T07:20:04;5.85;;;2.70;;
74707;SDS011;63360;50.104;8.074;2024-02-23T07:22:32;6.40;;;2.58;;
74707;SDS011;63360;50.104;8.074;2024-02-23T07:24:59;4.70;;;1.50;;
74707;SDS011;63360;50.104;8.074;2024-02-23T07:27:28;4.30;;;0.90;;
74707;SDS011;63360;50.104;8.074;2024-02-23T07:29:55;8.73;;;2.78;;
74707;SDS011;63360;50.104;8.074;2024-02-23T07:32:21;6.40;;;1.83;;
74707;SDS011;63360;50.104;8.074;2024-02-23T07:34:48;11.70;;;4.72;;
74707;SDS011;63360;50.104;8.074;2024-02-23T07:37:15;8.18;;;2.13;;
74707;SDS011;63360;50.104;8.074;2024-02-23T07:39:42;3.40;;;1.03;;
74707;SDS011;63360;50.104;8.074;2024-02-23T07:42:08;5.35;;;0.80;;
74707;SDS011;63360;50.104;8.074;2024-02-23T07:44:36;6.15;;;1.08;;
74707;SDS011;63360;50.104;8.074;2024-02-23T07:47:03;2.75;;;0.85;;
74707;SDS011;63360;50.104;8.074;2024-02-23T07:49:30;8.15;;;2.72;;
74707;SDS011;63360;50.104;8.074;2024-02-23T07:51:56;5.23;;;1.30;;
74707;SDS011;63360;50.104;8.074;2024-02-23T07:54:23;3.45;;;0.60;;
74707;SDS011;63360;50.104;8.074;2024-02-23T07:56:49;5.13;;;0.60;;
74707;SDS011;63360;50.104;8.074;2024-02-23T07:59:15;4.13;;;0.70;;
74707;SDS011;63360;50.104;8.074;2024-02-23T08:01:42;3.75;;;0.63;;
74707;SDS011;63360;50.104;8.074;2024-02-23T08:04:08;3.43;;;0.70;;
74707;SDS011;63360;50.104;8.074;2024-02-23T08:06:35;2.67;;;0.40;;
74707;SDS011;63360;50.104;8.074;2024-02-23T08:09:01;4.03;;;0.60;;
74707;SDS011;63360;50.104;8.074;2024-02-23T08:11:28;2.80;;;0.80;;
74707;SDS011;63360;50.104;8.074;2024-02-23T08:13:56;4.88;;;0.70;;
74707;SDS011;63360;50.104;8.074;2024-02-23T08:16:23;4.07;;;0.80;;
74707;SDS011;63360;50.104;8.074;2024-02-23T08:18:49;3.25;;;0.60;;
74707;SDS011;63360;50.104;8.074;2024-02-23T08:21:15;3.42;;;0.70;;
74707;SDS011;63360;50.104;8.074;2024-02-23T08:23:42;3.80;;;0.60;;
74707;SDS011;63360;50.104;8.074;2024-02-23T08:26:10;4.15;;;0.50;;
74707;SDS011;63360;50.104;8.074;2024-02-23T08:28:36;3.90;;;0.60;;
74707;SDS011;63360;50.104;8.074;2024-02-23T08:31:03;2.92;;;0.68;;
74707;SDS011;63360;50.104;8.074;2024-02-23T08:33:29;4.22;;;0.47;;
74707;SDS011;63360;50.104;8.074;2024-02-23T08:35:56;4.15;;;0.60;;
74707;SDS011;63360;50.104;8.074;2024-02-23T08:38:22;3.03;;;0.60;;
74707;SDS011;63360;50.104;8.074;2024-02-23T08:40:48;2.73;;;0.50;;
74707;SDS011;63360;50.104;8.074;2024-02-23T08:43:16;3.10;;;0.50;;
74707;SDS011;63360;50.104;8.074;2024-02-23T08:45:42;2.15;;;0.47;;
74707;SDS011;63360;50.104;8.074;2024-02-23T08:48:09;4.03;;;0.60;;
74707;SDS011;63360;50.104;8.074;2024-02-23T08:50:35;4.28;;;0.50;;
74707;SDS011;63360;50.104;8.074;2024-02-23T08:53:04;3.90;;;0.40;;
74707;SDS011;63360;50.104;8.074;2024-02-23T08:55:30;3.70;;;0.63;;
74707;SDS011;63360;50.104;8.074;2024-02-23T08:57:59;5.50;;;0.70;;
74707;SDS011;63360;50.104;8.074;2024-02-23T09:00:25;2.58;;;0.60;;
74707;SDS011;63360;50.104;8.074;2024-02-23T09:02:51;4.82;;;0.70;;
74707;SDS011;63360;50.104;8.074;2024-02-23T09:05:18;3.67;;;0.47;;
74707;SDS011;63360;50.104;8.074;2024-02-23T09:07:44;2.65;;;0.60;;
74707;SDS011;63360;50.104;8.074;2024-02-23T09:10:11;6.68;;;0.60;;
74707;SDS011;63360;50.104;8.074;2024-02-23T09:12:38;4.55;;;0.60;;
74707;SDS011;63360;50.104;8.074;2024-02-23T09:15:04;3.55;;;0.60;;
74707;SDS011;63360;50.104;8.074;2024-02-23T09:17:32;4.77;;;0.70;;
74707;SDS011;63360;50.104;8.074;2024-02-23T09:19:58;3.47;;;0.50;;
74707;SDS011;63360;50.104;8.074;2024-02-23T09:22:25;4.97;;;0.70;;
74707;SDS011;63360;50.104;8.074;2024-02-23T09:24:51;7.43;;;0.60;;
74707;SDS011;63360;50.104;8.074;2024-02-23T09:27:20;3.45;;;0.50;;
74707;SDS011;63360;50.104;8.074;2024-02-23T09:29:46;5.20;;;0.63;;
74707;SDS011;63360;50.104;8.074;2024-02-23T09:32:13;6.30;;;0.60;;
74707;SDS011;63360;50.104;8.074;2024-02-23T09:34:39;1.52;;;0.40;;
74707;SDS011;63360;50.104;8.074;2024-02-23T09:37:06;3.63;;;0.60;;
74707;SDS011;63360;50.104;8.074;2024-02-23T09:39:32;2.13;;;0.60;;
74707;SDS011;63360;50.104;8.074;2024-02-23T09:41:58;4.07;;;0.60;;
74707;SDS011;63360;50.104;8.074;2024-02-23T09:44:27;5.40;;;0.75;;
74707;SDS011;63360;50.104;8.074;2024-02-23T09:47:02;2.70;;;0.63;;
74707;SDS011;63360;50.104;8.074;2024-02-23T09:49:40;5.40;;;0.77;;
74707;SDS011;63360;50.104;8.074;2024-02-23T09:52:07;4.07;;;0.80;;
74707;SDS011;63360;50.104;8.074;2024-02-23T09:54:38;5.63;;;0.77;;
74707;SDS011;63360;50.104;8.074;2024-02-23T09:57:06;3.67;;;0.63;;
74707;SDS011;63360;50.104;8.074;2024-02-23T09:59:34;3.85;;;0.50;;
74707;SDS011;63360;50.104;8.074;2024-02-23T10:02:02;5.07;;;0.70;;
74707;SDS011;63360;50.104;8.074;2024-02-23T10:04:32;3.72;;;0.70;;
74707;SDS011;63360;50.104;8.074;2024-02-23T10:06:59;4.13;;;0.70;;
74707;SDS011;63360;50.104;8.074;2024-02-23T10:09:25;2.15;;;0.60;;
74707;SDS011;63360;50.104;8.074;2024-02-23T10:11:55;3.50;;;0.60;;
74707;SDS011;63360;50.104;8.074;2024-02-23T10:14:22;4.68;;;0.63;;
74707;SDS011;63360;50.104;8.074;2024-02-23T10:16:48;3.00;;;0.50;;
74707;SDS011;63360;50.104;8.074;2024-02-23T10:19:20;6.83;;;0.50;;
74707;SDS011;63360;50.104;8.074;2024-02-23T10:21:47;3.22;;;0.75;;
74707;SDS011;63360;50.104;8.074;2024-02-23T10:24:17;4.20;;;0.40;;
74707;SDS011;63360;50.104;8.074;2024-02-23T10:26:44;3.58;;;0.40;;
74707;SDS011;63360;50.104;8.074;2024-02-23T10:29:10;5.38;;;0.40;;
74707;SDS011;63360;50.104;8.074;2024-02-23T10:31:38;3.80;;;0.50;;
74707;SDS011;63360;50.104;8.074;2024-02-23T10:34:09;2.10;;;0.30;;
74707;SDS011;63360;50.104;8.074;2024-02-23T10:36:40;3.88;;;0.30;;
74707;SDS011;63360;50.104;8.074;2024-02-23T10:39:08;2.72;;;0.40;;
74707;SDS011;63360;50.104;8.074;2024-02-23T10:41:35;2.75;;;0.40;;
74707;SDS011;63360;50.104;8.074;2024-02-23T10:44:05;2.57;;;0.40;;
74707;SDS011;63360;50.104;8.074;2024-02-23T10:46:33;5.07;;;0.52;;
74707;SDS011;63360;50.104;8.074;2024-02-23T10:49:00;4.63;;;0.30;;
74707;SDS011;63360;50.104;8.074;2024-02-23T10:51:28;2.65;;;0.30;;
74707;SDS011;63360;50.104;8.074;2024-02-23T10:53:54;3.85;;;0.30;;
74707;SDS011;63360;50.104;8.074;2024-02-23T10:56:21;3.13;;;0.60;;
74707;SDS011;63360;50.104;8.074;2024-02-23T10:58:52;3.95;;;0.50;;
74707;SDS011;63360;50.104;8.074;2024-02-23T11:01:18;5.60;;;0.50;;
74707;SDS011;63360;50.104;8.074;2024-02-23T11:03:46;2.92;;;0.38;;
74707;SDS011;63360;50.104;8.074;2024-02-23T11:06:16;3.58;;;0.52;;
74707;SDS011;63360;50.104;8.074;2024-02-23T11:08:47;3.53;;;0.40;;
74707;SDS011;63360;50.104;8.074;2024-02-23T11:11:15;3.45;;;0.50;;
74707;SDS011;63360;50.104;8.074;2024-02-23T11:13:43;4.10;;;0.43;;
74707;SDS011;63360;50.104;8.074;2024-02-23T11:16:10;3.63;;;0.40;;
74707;SDS011;63360;50.104;8.074;2024-02-23T11:18:39;3.58;;;0.40;;
74707;SDS011;63360;50.104;8.074;2024-02-23T11:21:09;3.17;;;0.40;;
74707;SDS011;63360;50.104;8.074;2024-02-23T11:23:42;2.38;;;0.40;;
74707;SDS011;63360;50.104;8.074;2024-02-23T11:26:19;2.00;;;0.45;;
74707;SDS011;63360;50.104;8.074;2024-02-23T11:28:49;3.85;;;0.50;;
74707;SDS011;63360;50.104;8.074;2024-02-23T11:31:21;4.53;;;0.50;;
74707;SDS011;63360;50.104;8.074;2024-02-23T11:36:23;2.30;;;0.32;;
74707;SDS011;63360;50.104;8.074;2024-02-23T11:38:52;2.38;;;0.70;;
74707;SDS011;63360;50.104;8.074;2024-02-23T11:41:26;2.58;;;0.60;;
74707;SDS011;63360;50.104;8.074;2024-02-23T11:43:55;4.43;;;0.50;;
74707;SDS011;63360;50.104;8.074;2024-02-23T11:46:22;5.57;;;0.70;;
74707;SDS011;63360;50.104;8.074;2024-02-23T11:48:49;3.08;;;0.63;;
74707;SDS011;63360;50.104;8.074;2024-02-23T11:51:20;4.93;;;0.68;;
74707;SDS011;63360;50.104;8.074;2024-02-23T11:53:47;2.30;;;0.50;;
74707;SDS011;63360;50.104;8.074;2024-02-23T11:56:14;4.55;;;0.88;;
74707;SDS011;63360;50.104;8.074;2024-02-23T11:58:41;2.57;;;0.50;;
74707;SDS011;63360;50.104;8.074;2024-02-23T12:01:08;3.72;;;0.70;;
74707;SDS011;63360;50.104;8.074;2024-02-23T12:03:35;1.80;;;0.40;;
74707;SDS011;63360;50.104;8.074;2024-02-23T12:06:01;2.17;;;0.47;;
74707;SDS011;63360;50.104;8.074;2024-02-23T12:08:30;3.33;;;0.80;;
74707;SDS011;63360;50.104;8.074;2024-02-23T12:11:07;3.00;;;0.60;;
74707;SDS011;63360;50.104;8.074;2024-02-23T12:13:35;3.25;;;0.60;;
74707;SDS011;63360;50.104;8.074;2024-02-23T12:16:02;2.85;;;0.38;;
74707;SDS011;63360;50.104;8.074;2024-02-23T12:18:29;2.75;;;0.45;;
74707;SDS011;63360;50.104;8.074;2024-02-23T12:20:59;2.33;;;0.40;;
74707;SDS011;63360;50.104;8.074;2024-02-23T12:23:39;1.60;;;0.40;;
74707;SDS011;63360;50.104;8.074;2024-02-23T12:26:06;3.53;;;0.50;;
74707;SDS011;63360;50.104;8.074;2024-02-23T12:28:32;2.45;;;0.38;;
74707;SDS011;63360;50.104;8.074;2024-02-23T12:33:27;2.47;;;0.30;;
74707;SDS011;63360;50.104;8.074;2024-02-23T12:35:55;4.67;;;0.47;;
74707;SDS011;63360;50.104;8.074;2024-02-23T12:38:22;4.20;;;0.50;;
74707;SDS011;63360;50.104;8.074;2024-02-23T12:40:48;1.45;;;0.40;;
74707;SDS011;63360;50.104;8.074;2024-02-23T12:43:15;2.75;;;0.40;;
74707;SDS011;63360;50.104;8.074;2024-02-23T12:45:42;3.00;;;0.50;;
74707;SDS011;63360;50.104;8.074;2024-02-23T12:48:10;2.47;;;0.40;;
74707;SDS011;63360;50.104;8.074;2024-02-23T12:50:36;4.97;;;0.88;;
74707;SDS011;63360;50.104;8.074;2024-02-23T12:53:03;4.25;;;1.20;;
74707;SDS011;63360;50.104;8.074;2024-02-23T12:55:30;3.75;;;0.95;;
74707;SDS011;63360;50.104;8.074;2024-02-23T12:57:56;2.90;;;0.60;;
74707;SDS011;63360;50.104;8.074;2024-02-23T13:00:23;4.17;;;1.00;;
74707;SDS011;63360;50.104;8.074;2024-02-23T13:02:49;3.20;;;0.77;;
74707;SDS011;63360;50.104;8.074;2024-02-23T13:05:16;4.30;;;0.70;;
74707;SDS011;63360;50.104;8.074;2024-02-23T13:07:42;2.65;;;0.50;;
74707;SDS011;63360;50.104;8.074;2024-02-23T13:10:09;3.45;;;0.60;;
74707;SDS011;63360;50.104;8.074;2024-02-23T13:12:36;5.23;;;0.60;;
74707;SDS011;63360;50.104;8.074;2024-02-23T13:15:02;5.18;;;0.50;;
74707;SDS011;63360;50.104;8.074;2024-02-23T13:17:29;3.95;;;0.82;;
74707;SDS011;63360;50.104;8.074;2024-02-23T13:19:56;2.25;;;0.60;;
74707;SDS011;63360;50.104;8.074;2024-02-23T13:22:36;5.50;;;1.40;;
74707;SDS011;63360;50.104;8.074;2024-02-23T13:25:03;2.97;;;0.97;;
74707;SDS011;63360;50.104;8.074;2024-02-23T13:27:29;1.40;;;0.50;;
74707;SDS011;63360;50.104;8.074;2024-02-23T13:29:56;5.25;;;1.17;;
74707;SDS011;63360;50.104;8.074;2024-02-23T13:32:22;4.22;;;0.75;;
74707;SDS011;63360;50.104;8.074;2024-02-23T13:34:49;5.68;;;0.70;;
74707;SDS011;63360;50.104;8.074;2024-02-23T13:37:18;4.37;;;0.90;;
74707;SDS011;63360;50.104;8.074;2024-02-23T13:39:44;1.88;;;0.30;;
74707;SDS011;63360;50.104;8.074;2024-02-23T13:42:11;4.10;;;0.75;;
74707;SDS011;63360;50.104;8.074;2024-02-23T13:44:37;3.80;;;0.43;;
74707;SDS011;63360;50.104;8.074;2024-02-23T13:47:04;2.35;;;0.43;;
74707;SDS011;63360;50.104;8.074;2024-02-23T13:49:31;3.73;;;0.80;;
74707;SDS011;63360;50.104;8.074;2024-02-23T13:51:57;1.65;;;0.30;;
74707;SDS011;63360;50.104;8.074;2024-02-23T13:54:23;2.55;;;0.45;;
74707;SDS011;63360;50.104;8.074;2024-02-23T13:56:50;3.03;;;0.52;;
74707;SDS011;63360;50.104;8.074;2024-02-23T13:59:17;3.97;;;1.05;;
74707;SDS011;63360;50.104;8.074;2024-02-23T14:01:43;1.80;;;0.47;;
74707;SDS011;63360;50.104;8.074;2024-02-23T14:04:11;1.88;;;0.38;;
74707;SDS011;63360;50.104;8.074;2024-02-23T14:06:37;1.95;;;0.40;;
74707;SDS011;63360;50.104;8.074;2024-02-23T14:09:04;3.22;;;0.40;;
74707;SDS011;63360;50.104;8.074;2024-02-23T14:11:30;6.57;;;0.60;;
74707;SDS011;63360;50.104;8.074;2024-02-23T14:13:57;3.83;;;0.40;;
74707;SDS011;63360;50.104;8.074;2024-02-23T14:16:24;5.88;;;0.50;;
74707;SDS011;63360;50.104;8.074;2024-02-23T14:18:50;4.90;;;0.60;;
74707;SDS011;63360;50.104;8.074;2024-02-23T14:21:16;2.60;;;0.30;;
74707;SDS011;63360;50.104;8.074;2024-02-23T14:23:44;3.75;;;0.63;;
74707;SDS011;63360;50.104;8.074;2024-02-23T14:26:10;2.87;;;0.40;;
74707;SDS011;63360;50.104;8.074;2024-02-23T14:28:38;2.17;;;0.60;;
74707;SDS011;63360;50.104;8.074;2024-02-23T14:31:05;4.40;;;0.85;;
74707;SDS011;63360;50.104;8.074;2024-02-23T14:33:31;2.63;;;0.30;;
74707;SDS011;63360;50.104;8.074;2024-02-23T14:35:58;4.50;;;0.50;;
74707;SDS011;63360;50.104;8.074;2024-02-23T14:38:24;3.13;;;0.53;;
74707;SDS011;63360;50.104;8.074;2024-02-23T14:40:51;2.53;;;0.55;;
74707;SDS011;63360;50.104;8.074;2024-02-23T14:43:17;7.32;;;2.17;;
74707;SDS011;63360;50.104;8.074;2024-02-23T14:45:44;5.07;;;1.23;;
74707;SDS011;63360;50.104;8.074;2024-02-23T14:48:10;5.65;;;0.60;;
74707;SDS011;63360;50.104;8.074;2024-02-23T14:50:37;2.47;;;0.60;;
74707;SDS011;63360;50.104;8.074;2024-02-23T14:53:03;5.43;;;0.50;;